createdAt,value
2019-03-08T00:00:02.337Z,988.22
2019-03-08T00:01:02.314Z,988.22
2019-03-08T00:02:02.301Z,988.18
2019-03-08T00:03:02.288Z,988.19
2019-03-08T00:04:02.274Z,988.11
2019-03-08T00:05:02.274Z,988.24
2019-03-08T00:06:02.249Z,988.13
2019-03-08T00:07:02.238Z,988.16
2019-03-08T00:08:02.226Z,988.30
2019-03-08T00:09:02.218Z,988.21
2019-03-08T00:10:02.224Z,988.31
2019-03-08T00:11:02.189Z,988.60
2019-03-08T00:12:02.181Z,988.43
2019-03-08T00:13:02.169Z,988.90
2019-03-08T00:14:02.157Z,988.30
2019-03-08T00:15:02.167Z,988.48
2019-03-08T00:16:02.173Z,988.35
2019-03-08T00:17:02.130Z,988.51
2019-03-08T00:18:02.139Z,988.46
2019-03-08T00:19:02.104Z,988.77
2019-03-08T00:20:02.116Z,988.40
2019-03-08T00:21:02.085Z,988.55
2019-03-08T00:22:02.084Z,988.48
2019-03-08T00:23:02.069Z,988.59
2019-03-08T00:24:02.058Z,988.56
2019-03-08T00:25:02.079Z,988.56
2019-03-08T00:26:02.126Z,988.57
2019-03-08T00:27:02.098Z,988.81
2019-03-08T00:28:02.013Z,988.81
2019-03-08T00:29:02.130Z,988.33
2019-03-08T00:30:01.995Z,988.59
2019-03-08T00:31:02.007Z,988.97
2019-03-08T00:32:01.971Z,988.44
2019-03-08T00:33:01.959Z,988.40
2019-03-08T00:34:01.951Z,988.52
2019-03-08T00:35:01.944Z,988.46
2019-03-08T00:36:01.949Z,988.50
2019-03-08T00:37:01.947Z,988.74
2019-03-08T00:38:01.904Z,988.55
2019-03-08T00:39:01.887Z,988.57
2019-03-08T00:40:01.877Z,988.55
2019-03-08T00:41:01.870Z,988.43
2019-03-08T00:42:01.885Z,988.40
2019-03-08T00:43:01.856Z,988.40
2019-03-08T00:44:01.840Z,988.47
2019-03-08T00:45:01.836Z,988.38
2019-03-08T00:46:01.811Z,988.54
2019-03-08T00:47:01.833Z,988.40
2019-03-08T00:48:01.798Z,988.45
2019-03-08T00:49:01.781Z,988.66
2019-03-08T00:50:01.779Z,988.42
2019-03-08T00:51:01.776Z,988.48
2019-03-08T00:52:01.771Z,988.35
2019-03-08T00:53:01.764Z,988.48
2019-03-08T00:54:01.743Z,988.50
2019-03-08T00:55:01.736Z,988.88
2019-03-08T00:56:01.709Z,988.39
2019-03-08T00:57:01.703Z,988.52
2019-03-08T00:58:01.683Z,988.64
2019-03-08T00:59:01.694Z,988.66
2019-03-08T01:00:01.669Z,988.50
2019-03-08T01:01:01.659Z,988.72
2019-03-08T01:02:01.650Z,988.46
2019-03-08T01:03:01.631Z,988.85
2019-03-08T01:04:01.644Z,988.29
2019-03-08T01:05:01.623Z,988.27
2019-03-08T01:06:01.606Z,988.36
2019-03-08T01:07:01.606Z,988.53
2019-03-08T01:08:01.574Z,988.68
2019-03-08T01:09:01.570Z,988.60
2019-03-08T01:10:01.588Z,988.39
2019-03-08T01:11:01.551Z,988.29
2019-03-08T01:12:01.543Z,988.14
2019-03-08T01:13:01.534Z,988.42
2019-03-08T01:14:01.519Z,988.55
2019-03-08T01:15:01.534Z,988.30
2019-03-08T01:16:01.496Z,988.41
2019-03-08T01:17:01.490Z,988.27
2019-03-08T01:18:01.470Z,988.24
2019-03-08T01:19:01.465Z,988.25
2019-03-08T01:20:01.456Z,988.36
2019-03-08T01:21:01.480Z,988.75
2019-03-08T01:22:01.430Z,988.27
2019-03-08T01:23:01.423Z,988.62
2019-03-08T01:24:01.409Z,988.39
2019-03-08T01:25:01.403Z,988.42
2019-03-08T01:26:01.405Z,988.38
2019-03-08T01:27:01.380Z,988.17
2019-03-08T01:28:01.367Z,988.24
2019-03-08T01:29:01.357Z,988.32
2019-03-08T01:30:01.347Z,988.39
2019-03-08T01:31:01.352Z,988.27
2019-03-08T01:32:01.328Z,988.20
2019-03-08T01:33:01.313Z,988.27
2019-03-08T01:34:01.296Z,988.22
2019-03-08T01:35:01.298Z,988.25
2019-03-08T01:36:01.301Z,988.69
2019-03-08T01:37:01.268Z,988.17
2019-03-08T01:38:01.262Z,988.32
2019-03-08T01:39:01.249Z,988.17
2019-03-08T01:40:01.242Z,988.31
2019-03-08T01:41:01.247Z,988.65
2019-03-08T01:42:01.216Z,988.24
2019-03-08T01:43:01.210Z,988.40
2019-03-08T01:44:01.195Z,988.32
2019-03-08T01:45:01.188Z,988.21
2019-03-08T01:46:01.184Z,988.00
2019-03-08T01:47:01.169Z,988.41
2019-03-08T01:48:01.152Z,988.01
2019-03-08T01:49:01.144Z,987.98
2019-03-08T01:50:01.134Z,988.09
2019-03-08T01:51:01.133Z,988.11
2019-03-08T01:52:01.106Z,988.03
2019-03-08T01:53:01.169Z,988.18
2019-03-08T01:54:01.086Z,988.35
2019-03-08T01:55:01.085Z,988.13
2019-03-08T01:56:01.100Z,988.31
2019-03-08T01:57:01.054Z,988.19
2019-03-08T01:58:01.052Z,988.52
2019-03-08T01:59:01.038Z,988.37
2019-03-08T02:00:01.038Z,988.15
2019-03-08T02:01:01.010Z,988.24
2019-03-08T02:02:01.034Z,988.26
2019-03-08T02:03:00.992Z,988.49
2019-03-08T02:04:00.986Z,988.25
2019-03-08T02:05:00.967Z,988.31
2019-03-08T02:06:00.967Z,988.46
2019-03-08T02:07:00.944Z,988.22
2019-03-08T02:08:00.958Z,988.26
2019-03-08T02:09:00.925Z,988.29
2019-03-08T02:10:00.917Z,988.20
2019-03-08T02:11:00.915Z,988.30
2019-03-08T02:12:00.899Z,988.42
2019-03-08T02:13:00.912Z,988.41
2019-03-08T02:14:00.872Z,988.30
2019-03-08T02:15:00.870Z,988.21
2019-03-08T02:16:00.852Z,988.20
2019-03-08T02:17:00.849Z,988.32
2019-03-08T02:18:00.839Z,988.45
2019-03-08T02:19:00.838Z,988.30
2019-03-08T02:20:00.813Z,988.30
2019-03-08T02:21:06.718Z,988.28
2019-03-08T02:22:01.797Z,988.45
2019-03-08T02:23:00.786Z,988.27
2019-03-08T02:24:00.823Z,988.27
2019-03-08T02:25:00.761Z,988.28
2019-03-08T02:26:00.771Z,988.73
2019-03-08T02:27:00.763Z,988.25
2019-03-08T02:28:00.730Z,988.04
2019-03-08T02:29:00.740Z,988.30
2019-03-08T02:30:00.792Z,988.18
2019-03-08T02:31:00.691Z,988.23
2019-03-08T02:32:00.681Z,988.21
2019-03-08T02:33:00.687Z,988.22
2019-03-08T02:34:00.667Z,987.98
2019-03-08T02:35:00.675Z,988.20
2019-03-08T02:36:00.638Z,988.15
2019-03-08T02:37:00.627Z,988.33
2019-03-08T02:38:00.617Z,988.07
2019-03-08T02:39:00.605Z,988.14
2019-03-08T02:40:00.613Z,988.16
2019-03-08T02:41:00.614Z,988.26
2019-03-08T02:42:00.571Z,988.14
2019-03-08T02:43:00.575Z,988.32
2019-03-08T02:44:00.552Z,988.11
2019-03-08T02:45:00.543Z,988.00
2019-03-08T02:46:00.553Z,988.19
2019-03-08T02:47:00.526Z,988.16
2019-03-08T02:48:00.515Z,988.18
2019-03-08T02:49:00.512Z,988.28
2019-03-08T02:50:00.497Z,987.99
2019-03-08T02:51:00.508Z,988.72
2019-03-08T02:52:00.473Z,988.08
2019-03-08T02:53:00.462Z,988.50
2019-03-08T02:54:00.451Z,987.98
2019-03-08T02:55:00.449Z,988.13
2019-03-08T02:56:00.438Z,988.09
2019-03-08T02:57:00.467Z,988.35
2019-03-08T02:58:00.407Z,988.18
2019-03-08T02:59:00.392Z,988.39
2019-03-08T03:00:00.386Z,988.13
2019-03-08T03:01:00.384Z,988.27
2019-03-08T03:02:00.367Z,988.24
2019-03-08T03:03:00.368Z,988.26
2019-03-08T03:04:00.344Z,988.23
2019-03-08T03:05:00.405Z,988.15
2019-03-08T03:06:00.317Z,988.21
2019-03-08T03:07:00.312Z,987.99
2019-03-08T03:08:00.318Z,988.22
2019-03-08T03:09:00.292Z,988.29
2019-03-08T03:10:00.303Z,988.31
2019-03-08T03:11:00.274Z,988.16
2019-03-08T03:12:00.253Z,988.23
2019-03-08T03:13:00.264Z,988.30
2019-03-08T03:14:00.235Z,988.20
2019-03-08T03:15:00.305Z,988.29
2019-03-08T03:16:00.231Z,988.26
2019-03-08T03:17:00.206Z,988.33
2019-03-08T03:18:00.197Z,988.47
2019-03-08T03:19:00.208Z,988.43
2019-03-08T03:20:00.320Z,988.42
2019-03-08T03:21:00.165Z,988.67
2019-03-08T03:22:00.163Z,988.44
2019-03-08T03:23:00.147Z,988.59
2019-03-08T03:24:00.199Z,988.35
2019-03-08T03:25:00.280Z,988.34
2019-03-08T03:26:00.114Z,988.57
2019-03-08T03:27:00.092Z,988.78
2019-03-08T03:28:00.084Z,988.56
2019-03-08T03:29:00.079Z,988.55
2019-03-08T03:30:00.118Z,988.71
2019-03-08T03:31:00.069Z,988.34
2019-03-08T03:32:00.048Z,988.94
2019-03-08T03:33:00.036Z,988.60
2019-03-08T03:34:00.073Z,988.92
2019-03-08T03:35:00.016Z,988.56
2019-03-08T03:36:00.041Z,988.85
2019-03-08T03:36:59.986Z,988.69
2019-03-08T03:37:59.990Z,988.63
2019-03-08T03:38:59.976Z,989.03
2019-03-08T03:40:00.002Z,988.83
2019-03-08T03:40:59.951Z,988.94
2019-03-08T03:41:59.965Z,988.62
2019-03-08T03:42:59.927Z,988.85
2019-03-08T03:43:59.919Z,988.76
2019-03-08T03:44:59.906Z,989.00
2019-03-08T03:45:59.901Z,988.83
2019-03-08T03:46:59.888Z,988.85
2019-03-08T03:47:59.893Z,989.03
2019-03-08T03:48:59.862Z,989.07
2019-03-08T03:49:59.857Z,988.52
2019-03-08T03:50:59.869Z,988.83
2019-03-08T03:51:59.845Z,988.90
2019-03-08T03:52:59.849Z,988.83
2019-03-08T03:53:59.817Z,989.05
2019-03-08T03:54:59.842Z,988.87
2019-03-08T03:55:59.793Z,988.91
2019-03-08T03:56:59.796Z,989.12
2019-03-08T03:57:59.801Z,988.88
2019-03-08T03:58:59.759Z,989.32
2019-03-08T03:59:59.749Z,989.24
2019-03-08T04:00:59.739Z,989.19
2019-03-08T04:01:59.734Z,989.14
2019-03-08T04:02:59.717Z,989.23
2019-03-08T04:03:59.728Z,989.19
2019-03-08T04:04:59.701Z,989.31
2019-03-08T04:05:59.699Z,989.34
2019-03-08T04:06:59.677Z,989.31
2019-03-08T04:07:59.681Z,989.26
2019-03-08T04:08:59.650Z,989.36
2019-03-08T04:09:59.659Z,989.54
2019-03-08T04:10:59.636Z,989.16
2019-03-08T04:11:59.631Z,989.40
2019-03-08T04:12:59.635Z,989.39
2019-03-08T04:13:59.594Z,989.35
2019-03-08T04:14:59.635Z,989.49
2019-03-08T04:15:59.581Z,989.69
2019-03-08T04:16:59.571Z,989.70
2019-03-08T04:17:59.583Z,989.53
2019-03-08T04:18:59.552Z,989.69
2019-03-08T04:19:59.541Z,989.57
2019-03-08T04:20:59.521Z,989.52
2019-03-08T04:21:59.518Z,989.56
2019-03-08T04:22:59.517Z,989.52
2019-03-08T04:23:59.499Z,989.81
2019-03-08T04:24:59.480Z,989.52
2019-03-08T04:25:59.468Z,989.54
2019-03-08T04:26:59.468Z,989.70
2019-03-08T04:27:59.465Z,990.12
2019-03-08T04:28:59.437Z,989.67
2019-03-08T04:29:59.430Z,989.76
2019-03-08T04:30:59.426Z,989.80
2019-03-08T04:31:59.408Z,989.60
2019-03-08T04:32:59.412Z,989.80
2019-03-08T04:33:59.398Z,989.79
2019-03-08T04:34:59.375Z,990.03
2019-03-08T04:35:59.362Z,989.81
2019-03-08T04:36:59.383Z,989.89
2019-03-08T04:37:59.374Z,989.66
2019-03-08T04:38:59.338Z,989.74
2019-03-08T04:39:59.340Z,990.02
2019-03-08T04:40:59.316Z,989.87
2019-03-08T04:41:59.314Z,989.86
2019-03-08T04:42:59.298Z,989.80
2019-03-08T04:43:59.315Z,989.99
2019-03-08T04:44:59.280Z,989.93
2019-03-08T04:45:59.284Z,990.29
2019-03-08T04:46:59.253Z,989.97
2019-03-08T04:47:59.248Z,989.97
2019-03-08T04:48:59.232Z,989.89
2019-03-08T04:49:59.252Z,989.98
2019-03-08T04:50:59.211Z,990.03
2019-03-08T04:51:59.219Z,989.84
2019-03-08T04:52:59.192Z,990.29
2019-03-08T04:53:59.201Z,990.13
2019-03-08T04:54:59.167Z,990.26
2019-03-08T04:55:59.189Z,990.18
2019-03-08T04:56:59.145Z,990.12
2019-03-08T04:57:59.142Z,990.02
2019-03-08T04:58:59.129Z,989.91
2019-03-08T04:59:59.119Z,990.34
2019-03-08T05:00:59.101Z,990.10
2019-03-08T05:01:59.112Z,990.28
2019-03-08T05:02:59.080Z,989.97
2019-03-08T05:03:59.071Z,989.97
2019-03-08T05:04:59.064Z,990.33
2019-03-08T05:06:00.754Z,990.19
2019-03-08T05:06:59.045Z,990.15
2019-03-08T05:07:59.047Z,990.31
2019-03-08T05:08:59.025Z,990.23
2019-03-08T05:09:59.022Z,990.26
2019-03-08T05:10:59.000Z,990.27
2019-03-08T05:11:59.034Z,990.28
2019-03-08T05:12:58.981Z,990.26
2019-03-08T05:13:58.988Z,990.32
2019-03-08T05:14:58.963Z,990.38
2019-03-08T05:15:58.951Z,990.60
2019-03-08T05:16:58.942Z,990.58
2019-03-08T05:17:58.924Z,990.42
2019-03-08T05:18:58.944Z,990.48
2019-03-08T05:19:58.917Z,990.97
2019-03-08T05:20:58.896Z,990.64
2019-03-08T05:21:58.888Z,990.71
2019-03-08T05:22:58.884Z,990.56
2019-03-08T05:23:58.872Z,990.74
2019-03-08T05:24:58.880Z,990.67
2019-03-08T05:25:58.851Z,990.82
2019-03-08T05:26:58.836Z,990.54
2019-03-08T05:27:58.825Z,990.75
2019-03-08T05:28:58.805Z,990.70
2019-03-08T05:29:58.791Z,990.83
2019-03-08T05:30:58.812Z,991.03
2019-03-08T05:31:58.772Z,990.94
2019-03-08T05:32:58.764Z,991.07
2019-03-08T05:33:58.823Z,990.81
2019-03-08T05:34:58.745Z,990.74
2019-03-08T05:35:58.759Z,990.79
2019-03-08T05:36:58.725Z,990.69
2019-03-08T05:37:58.727Z,991.28
2019-03-08T05:38:58.705Z,990.90
2019-03-08T05:39:58.695Z,990.91
2019-03-08T05:40:58.681Z,991.39
2019-03-08T05:41:58.713Z,990.98
2019-03-08T05:42:58.655Z,991.11
2019-03-08T05:43:58.647Z,990.94
2019-03-08T05:44:58.643Z,991.26
2019-03-08T05:45:58.631Z,991.12
2019-03-08T05:46:58.618Z,991.19
2019-03-08T05:47:58.647Z,991.29
2019-03-08T05:48:58.601Z,991.02
2019-03-08T05:49:58.589Z,991.53
2019-03-08T05:50:58.579Z,991.30
2019-03-08T05:51:58.571Z,991.49
2019-03-08T05:52:58.555Z,991.25
2019-03-08T05:53:58.588Z,991.47
2019-03-08T05:54:58.565Z,991.44
2019-03-08T05:55:58.529Z,991.93
2019-03-08T05:56:58.516Z,991.61
2019-03-08T05:57:58.508Z,991.74
2019-03-08T05:58:58.544Z,991.89
2019-03-08T05:59:58.498Z,991.91
2019-03-08T06:00:58.471Z,991.78
2019-03-08T06:01:58.510Z,992.16
2019-03-08T06:02:58.451Z,991.99
2019-03-08T06:03:58.464Z,991.84
2019-03-08T06:04:58.427Z,992.00
2019-03-08T06:05:58.413Z,991.97
2019-03-08T06:06:58.419Z,992.53
2019-03-08T06:07:58.395Z,992.20
2019-03-08T06:08:58.383Z,992.09
2019-03-08T06:09:58.400Z,992.37
2019-03-08T06:10:58.367Z,992.16
2019-03-08T06:11:58.352Z,992.18
2019-03-08T06:12:58.342Z,992.36
2019-03-08T06:13:58.338Z,992.36
2019-03-08T06:14:58.377Z,992.58
2019-03-08T06:15:58.315Z,992.53
2019-03-08T06:16:58.305Z,993.00
2019-03-08T06:17:58.292Z,992.70
2019-03-08T06:18:58.277Z,992.58
2019-03-08T06:19:58.307Z,992.66
2019-03-08T06:20:58.264Z,992.66
2019-03-08T06:21:58.256Z,992.64
2019-03-08T06:22:58.242Z,992.60
2019-03-08T06:23:58.229Z,993.08
2019-03-08T06:24:58.220Z,992.94
2019-03-08T06:25:58.232Z,992.81
2019-03-08T06:26:58.201Z,992.92
2019-03-08T06:27:58.195Z,992.84
2019-03-08T06:28:58.173Z,993.02
2019-03-08T06:29:58.162Z,992.86
2019-03-08T06:30:58.202Z,993.12
2019-03-08T06:31:58.173Z,993.28
2019-03-08T06:32:58.145Z,993.25
2019-03-08T06:33:58.121Z,993.26
2019-03-08T06:34:58.110Z,993.12
2019-03-08T06:35:58.105Z,993.16
2019-03-08T06:36:58.113Z,993.30
2019-03-08T06:37:58.084Z,993.24
2019-03-08T06:38:58.073Z,993.18
2019-03-08T06:39:59.415Z,993.31
2019-03-08T06:40:58.054Z,993.23
2019-03-08T06:41:58.058Z,993.60
2019-03-08T06:42:58.031Z,993.44
2019-03-08T06:43:58.014Z,993.67
2019-03-08T06:44:58.009Z,993.55
2019-03-08T06:45:58.001Z,993.83
2019-03-08T06:46:57.991Z,993.75
2019-03-08T06:47:58.003Z,993.69
2019-03-08T06:48:57.977Z,993.79
2019-03-08T06:49:57.958Z,993.75
2019-03-08T06:50:57.989Z,993.80
2019-03-08T06:51:57.943Z,994.33
2019-03-08T06:52:57.928Z,994.23
2019-03-08T06:53:57.939Z,994.00
2019-03-08T06:54:57.904Z,993.79
2019-03-08T06:55:57.901Z,994.10
2019-03-08T06:56:57.883Z,994.32
2019-03-08T06:57:57.874Z,994.23
2019-03-08T06:58:57.861Z,994.26
2019-03-08T06:59:57.896Z,994.45
2019-03-08T07:00:57.839Z,994.19
2019-03-08T07:01:57.842Z,994.53
2019-03-08T07:02:57.813Z,994.35
2019-03-08T07:03:57.805Z,994.36
2019-03-08T07:04:57.839Z,994.58
2019-03-08T07:05:57.794Z,994.67
2019-03-08T07:06:57.780Z,994.40
2019-03-08T07:07:57.769Z,994.52
2019-03-08T07:08:57.758Z,994.56
2019-03-08T07:09:57.794Z,994.88
2019-03-08T07:10:57.741Z,994.67
2019-03-08T07:11:57.726Z,994.85
2019-03-08T07:13:03.286Z,994.74
2019-03-08T07:13:58.706Z,994.97
2019-03-08T07:14:57.703Z,995.01
2019-03-08T07:15:57.745Z,994.85
2019-03-08T07:16:57.675Z,995.11
2019-03-08T07:17:57.663Z,994.99
2019-03-08T07:18:57.656Z,994.98
2019-03-08T07:19:57.643Z,995.24
2019-03-08T07:20:57.637Z,995.01
2019-03-08T07:21:57.640Z,995.29
2019-03-08T07:22:57.605Z,995.54
2019-03-08T07:23:57.593Z,995.34
2019-03-08T07:24:57.585Z,995.60
2019-03-08T07:25:57.611Z,995.86
2019-03-08T07:26:57.572Z,995.79
2019-03-08T07:27:57.579Z,995.94
2019-03-08T07:28:57.617Z,995.94
2019-03-08T07:29:57.548Z,995.94
2019-03-08T07:30:58.284Z,995.69
2019-03-08T07:31:57.518Z,996.14
2019-03-08T07:32:57.500Z,996.00
2019-03-08T07:33:57.522Z,996.04
2019-03-08T07:34:57.498Z,996.14
2019-03-08T07:35:57.475Z,996.46
2019-03-08T07:36:57.458Z,996.22
2019-03-08T07:37:57.474Z,996.31
2019-03-08T07:38:57.444Z,996.10
2019-03-08T07:39:57.451Z,996.31
2019-03-08T07:40:57.427Z,996.45
2019-03-08T07:41:57.420Z,996.26
2019-03-08T07:42:57.397Z,996.35
2019-03-08T07:43:57.392Z,996.42
2019-03-08T07:44:57.378Z,996.24
2019-03-08T07:45:57.391Z,996.38
2019-03-08T07:46:57.363Z,996.31
2019-03-08T07:47:57.344Z,996.37
2019-03-08T07:48:57.351Z,996.48
2019-03-08T07:49:57.326Z,996.52
2019-03-08T07:50:57.320Z,996.43
2019-03-08T07:51:57.327Z,996.59
2019-03-08T07:52:57.298Z,996.61
2019-03-08T07:53:57.290Z,996.52
2019-03-08T07:54:57.281Z,996.72
2019-03-08T07:55:57.275Z,996.64
2019-03-08T07:56:57.247Z,996.64
2019-03-08T07:57:57.270Z,996.78
2019-03-08T07:58:57.246Z,997.17
2019-03-08T07:59:57.223Z,996.79
2019-03-08T08:00:57.229Z,996.95
2019-03-08T08:01:57.216Z,997.00
2019-03-08T08:03:03.461Z,997.18
2019-03-08T08:03:58.208Z,996.92
2019-03-08T08:04:57.166Z,997.04
2019-03-08T08:05:58.269Z,996.99
2019-03-08T08:06:57.146Z,996.98
2019-03-08T08:07:57.139Z,997.33
2019-03-08T08:08:57.179Z,997.30
2019-03-08T08:09:57.137Z,997.09
2019-03-08T08:10:57.111Z,997.12
2019-03-08T08:11:57.096Z,996.98
2019-03-08T08:12:57.089Z,997.34
2019-03-08T08:13:57.071Z,997.56
2019-03-08T08:14:57.072Z,997.58
2019-03-08T08:15:57.078Z,997.35
2019-03-08T08:16:57.045Z,997.41
2019-03-08T08:17:57.058Z,997.56
2019-03-08T08:18:57.024Z,997.43
2019-03-08T08:19:57.009Z,997.38
2019-03-08T08:20:57.006Z,997.54
2019-03-08T08:21:57.048Z,997.55
2019-03-08T08:22:56.979Z,997.51
2019-03-08T08:23:56.973Z,997.67
2019-03-08T08:24:56.958Z,997.59
2019-03-08T08:25:56.981Z,997.70
2019-03-08T08:26:56.967Z,997.88
2019-03-08T08:27:56.941Z,997.86
2019-03-08T08:28:56.925Z,997.88
2019-03-08T08:29:56.912Z,998.26
2019-03-08T08:30:56.915Z,998.16
2019-03-08T08:31:56.883Z,998.08
2019-03-08T08:32:56.904Z,998.21
2019-03-08T08:33:56.862Z,998.38
2019-03-08T08:34:56.869Z,998.55
2019-03-08T08:35:56.845Z,998.32
2019-03-08T08:36:56.841Z,998.17
2019-03-08T08:37:56.825Z,998.28
2019-03-08T08:38:56.851Z,998.26
2019-03-08T08:39:56.805Z,998.35
2019-03-08T08:40:56.826Z,998.37
2019-03-08T08:41:56.788Z,998.54
2019-03-08T08:42:56.782Z,998.37
2019-03-08T08:43:56.766Z,998.46
2019-03-08T08:44:56.764Z,998.88
2019-03-08T08:45:56.738Z,998.83
2019-03-08T08:46:56.741Z,998.60
2019-03-08T08:47:56.737Z,998.58
2019-03-08T08:48:56.716Z,998.65
2019-03-08T08:49:56.739Z,998.56
2019-03-08T08:50:56.706Z,998.78
2019-03-08T08:51:56.676Z,1000.00
2019-03-08T08:52:56.682Z,999.00
2019-03-08T08:53:56.652Z,998.91
2019-03-08T08:54:56.659Z,998.95
2019-03-08T08:55:56.653Z,999.06
2019-03-08T08:56:56.632Z,999.31
2019-03-08T08:57:56.610Z,998.97
2019-03-08T08:58:56.604Z,999.10
2019-03-08T08:59:57.114Z,999.23
2019-03-08T09:00:56.583Z,999.19
2019-03-08T09:01:56.566Z,999.05
2019-03-08T09:02:56.557Z,999.36
2019-03-08T09:03:56.553Z,999.15
2019-03-08T09:04:56.581Z,999.46
2019-03-08T09:05:56.539Z,999.38
2019-03-08T09:06:56.521Z,999.37
2019-03-08T09:07:56.509Z,999.38
2019-03-08T09:08:56.499Z,999.49
2019-03-08T09:09:56.482Z,999.71
2019-03-08T09:10:56.509Z,999.71
2019-03-08T09:11:56.477Z,999.56
2019-03-08T09:12:56.474Z,999.50
2019-03-08T09:13:56.445Z,999.59
2019-03-08T09:14:56.433Z,999.80
2019-03-08T09:15:56.426Z,999.59
2019-03-08T09:16:57.661Z,999.71
2019-03-08T09:17:56.421Z,999.59
2019-03-08T09:18:56.395Z,999.80
2019-03-08T09:19:56.383Z,999.88
2019-03-08T09:20:56.375Z,999.99
2019-03-08T09:21:56.395Z,999.72
2019-03-08T09:22:56.378Z,999.76
2019-03-08T09:23:56.367Z,999.97
2019-03-08T09:24:56.374Z,999.82
2019-03-08T09:25:56.321Z,999.77
2019-03-08T09:26:56.315Z,999.99
2019-03-08T09:27:56.293Z,1000.07
2019-03-08T09:28:56.309Z,999.83
2019-03-08T09:29:56.278Z,999.88
2019-03-08T09:30:56.280Z,999.91
2019-03-08T09:31:56.254Z,999.81
2019-03-08T09:32:59.453Z,1000.04
2019-03-08T09:33:56.238Z,1000.22
2019-03-08T09:34:56.236Z,1000.08
2019-03-08T09:35:56.219Z,1000.16
2019-03-08T09:36:56.210Z,1000.32
2019-03-08T09:37:56.189Z,1000.37
2019-03-08T09:38:56.223Z,1000.29
2019-03-08T09:39:56.172Z,1000.93
2019-03-08T09:40:56.894Z,1000.32
2019-03-08T09:41:56.145Z,1000.33
2019-03-08T09:42:56.139Z,1000.48
2019-03-08T09:43:56.123Z,1000.43
2019-03-08T09:44:56.144Z,1001.01
2019-03-08T09:45:56.110Z,1000.67
2019-03-08T09:46:56.102Z,1000.79
2019-03-08T09:47:56.087Z,1000.88
2019-03-08T09:48:56.075Z,1000.58
2019-03-08T09:49:56.060Z,1000.64
2019-03-08T09:50:56.081Z,1000.68
2019-03-08T09:51:56.040Z,1000.90
2019-03-08T09:52:56.057Z,1001.01
2019-03-08T09:53:56.033Z,1000.68
2019-03-08T09:54:56.009Z,1000.95
2019-03-08T09:55:56.015Z,1001.40
2019-03-08T09:56:56.010Z,1001.15
2019-03-08T09:57:55.986Z,1001.02
2019-03-08T09:58:55.987Z,1000.94
2019-03-08T09:59:55.972Z,1000.98
2019-03-08T10:00:55.945Z,1001.40
2019-03-08T10:01:55.933Z,1001.07
2019-03-08T10:02:55.939Z,1001.14
2019-03-08T10:03:55.915Z,1001.02
2019-03-08T10:04:57.319Z,1000.94
2019-03-08T10:05:55.910Z,1000.72
2019-03-08T10:06:55.881Z,1001.01
2019-03-08T10:07:55.888Z,1001.08
2019-03-08T10:08:56.499Z,1001.51
2019-03-08T10:09:55.852Z,1001.24
2019-03-08T10:10:55.847Z,1001.27
2019-03-08T10:11:55.837Z,1000.97
2019-03-08T10:12:55.852Z,1001.24
2019-03-08T10:13:55.824Z,1000.98
2019-03-08T10:14:55.806Z,1001.36
2019-03-08T10:15:55.806Z,1001.27
2019-03-08T10:16:55.794Z,1001.21
2019-03-08T10:17:55.776Z,1001.80
2019-03-08T10:18:55.788Z,1001.65
2019-03-08T10:19:55.757Z,1001.49
2019-03-08T10:20:55.769Z,1001.64
2019-03-08T10:21:55.737Z,1001.98
2019-03-08T10:22:55.734Z,1001.65
2019-03-08T10:23:55.743Z,1001.71
2019-03-08T10:24:55.727Z,1001.77
2019-03-08T10:25:55.697Z,1001.54
2019-03-08T10:26:55.702Z,1001.85
2019-03-08T10:27:55.670Z,1002.08
2019-03-08T10:28:55.659Z,1001.86
2019-03-08T10:29:55.687Z,1001.86
2019-03-08T10:30:55.737Z,1002.17
2019-03-08T10:31:55.622Z,1001.71
2019-03-08T10:32:55.617Z,1001.74
2019-03-08T10:33:55.607Z,1001.71
2019-03-08T10:34:55.620Z,1001.74
2019-03-08T10:35:55.605Z,1001.81
2019-03-08T10:36:55.566Z,1001.84
2019-03-08T10:37:55.558Z,1001.76
2019-03-08T10:38:55.616Z,1002.03
2019-03-08T10:39:55.567Z,1002.04
2019-03-08T10:40:55.533Z,1002.21
2019-03-08T10:41:55.524Z,1002.10
2019-03-08T10:42:55.505Z,1002.23
2019-03-08T10:43:55.504Z,1002.02
2019-03-08T10:44:55.513Z,1002.20
2019-03-08T10:45:55.509Z,1002.04
2019-03-08T10:46:55.465Z,1002.30
2019-03-08T10:47:56.276Z,1002.36
2019-03-08T10:48:55.441Z,1002.04
2019-03-08T10:49:56.253Z,1002.14
2019-03-08T10:50:55.425Z,1002.21
2019-03-08T10:51:55.646Z,1002.31
2019-03-08T10:52:55.559Z,1002.36
2019-03-08T10:54:00.661Z,1002.26
2019-03-08T10:54:56.387Z,1002.72
2019-03-08T10:55:55.381Z,1002.51
2019-03-08T10:56:55.383Z,1002.49
2019-03-08T10:57:55.346Z,1002.30
2019-03-08T10:58:55.361Z,1002.64
2019-03-08T10:59:55.327Z,1002.54
2019-03-08T11:00:55.319Z,1002.98
2019-03-08T11:01:55.313Z,1002.53
2019-03-08T11:02:55.319Z,1003.12
2019-03-08T11:03:55.292Z,1002.58
2019-03-08T11:04:55.288Z,1002.63
2019-03-08T11:05:55.268Z,1002.69
2019-03-08T11:06:55.272Z,1002.70
2019-03-08T11:07:55.275Z,1002.65
2019-03-08T11:08:55.237Z,1002.73
2019-03-08T11:09:55.221Z,1002.72
2019-03-08T11:10:55.219Z,1002.84
2019-03-08T11:11:55.347Z,1003.07
2019-03-08T11:12:55.197Z,1002.78
2019-03-08T11:13:55.205Z,1003.57
2019-03-08T11:14:55.173Z,1003.12
2019-03-08T11:15:55.172Z,1002.78
2019-03-08T11:16:55.196Z,1003.06
2019-03-08T11:17:55.140Z,1002.83
2019-03-08T11:18:55.154Z,1003.33
2019-03-08T11:19:55.115Z,1003.14
2019-03-08T11:20:55.126Z,1002.91
2019-03-08T11:21:55.099Z,1003.02
2019-03-08T11:22:55.091Z,1002.96
2019-03-08T11:23:55.164Z,1002.90
2019-03-08T11:24:55.178Z,1003.03
2019-03-08T11:25:55.063Z,1002.96
2019-03-08T11:26:55.271Z,1002.98
2019-03-08T11:27:55.052Z,1002.86
2019-03-08T11:28:55.019Z,1003.00
2019-03-08T11:29:55.049Z,1003.03
2019-03-08T11:30:55.003Z,1003.29
2019-03-08T11:31:54.999Z,1003.25
2019-03-08T11:32:54.975Z,1003.16
2019-03-08T11:33:55.022Z,1003.20
2019-03-08T11:34:54.982Z,1003.72
2019-03-08T11:35:54.950Z,1003.25
2019-03-08T11:36:54.973Z,1003.24
2019-03-08T11:37:54.929Z,1003.46
2019-03-08T11:38:54.916Z,1003.63
2019-03-08T11:39:54.934Z,1003.39
2019-03-08T11:40:55.559Z,1003.58
2019-03-08T11:41:54.887Z,1003.44
2019-03-08T11:42:54.873Z,1003.48
2019-03-08T11:43:56.350Z,1003.58
2019-03-08T11:44:54.862Z,1003.44
2019-03-08T11:45:54.878Z,1003.60
2019-03-08T11:46:54.833Z,1003.56
2019-03-08T11:47:54.845Z,1003.67
2019-03-08T11:48:54.816Z,1003.63
2019-03-08T11:49:54.792Z,1003.70
2019-03-08T11:50:54.784Z,1003.94
2019-03-08T11:51:54.796Z,1003.88
2019-03-08T11:52:54.799Z,1003.80
2019-03-08T11:53:56.514Z,1004.05
2019-03-08T11:54:54.739Z,1004.21
2019-03-08T11:55:54.732Z,1003.63
2019-03-08T11:56:56.401Z,1004.03
2019-03-08T11:57:54.734Z,1003.96
2019-03-08T11:58:54.704Z,1004.06
2019-03-08T11:59:54.726Z,1003.88
2019-03-08T12:00:54.696Z,1003.94
2019-03-08T12:01:54.663Z,1004.22
2019-03-08T12:02:54.665Z,1004.37
2019-03-08T12:03:54.661Z,1004.59
2019-03-08T12:04:54.638Z,1004.07
2019-03-08T12:05:54.624Z,1004.08
2019-03-08T12:06:54.634Z,1004.29
2019-03-08T12:07:54.598Z,1004.17
2019-03-08T12:08:54.618Z,1004.25
2019-03-08T12:09:54.589Z,1004.29
2019-03-08T12:10:54.601Z,1004.21
2019-03-08T12:11:54.567Z,1004.31
2019-03-08T12:12:54.544Z,1004.43
2019-03-08T12:13:54.589Z,1004.14
2019-03-08T12:14:54.530Z,1004.23
2019-03-08T12:15:54.528Z,1004.63
2019-03-08T12:16:54.509Z,1004.41
2019-03-08T12:17:54.496Z,1004.44
2019-03-08T12:18:54.479Z,1004.29
2019-03-08T12:19:54.541Z,1004.17
2019-03-08T12:20:54.463Z,1004.40
2019-03-08T12:21:55.196Z,1004.52
2019-03-08T12:22:54.441Z,1004.56